Time;durP1;ratioP1;P1;durP2;ratioP2;P2;SDS_P1;SDS_P2;PMS_P1;PMS_P2;Temp;Humidity;BMP_temperature;BMP_pressure;BME280_temperature;BME280_humidity;BME280_pressure;Samples;Min_cycle;Max_cycle;Signal;HPM_P1;HPM_P2
2023/07/08 00:00:57;;;;;;;7.43;4.25;;;19.60;99.90;;;;;;4726186;30;20239;-84
2023/07/08 00:03:24;;;;;;;6.90;4.40;;;19.80;99.90;;;;;;4723991;30;20416;-84
2023/07/08 00:05:55;;;;;;;6.32;4.32;;;19.60;99.90;;;;;;4728372;30;20689;-84
2023/07/08 00:08:22;;;;;;;6.13;4.70;;;19.50;99.90;;;;;;4729097;30;20213;-84
2023/07/08 00:10:49;;;;;;;6.72;4.43;;;19.70;99.90;;;;;;4727447;30;20305;-85
2023/07/08 00:13:19;;;;;;;7.28;4.50;;;19.50;99.90;;;;;;4723308;30;20221;-84
2023/07/08 00:15:46;;;;;;;7.75;4.55;;;19.50;99.90;;;;;;4723659;30;20703;-85
2023/07/08 00:18:16;;;;;;;7.82;4.75;;;19.70;99.90;;;;;;4722234;30;20241;-84
2023/07/08 00:20:48;;;;;;;5.82;4.50;;;19.30;99.90;;;;;;4724110;30;20278;-85
2023/07/08 00:23:16;;;;;;;7.22;4.85;;;19.20;99.90;;;;;;4728714;30;20239;-86
2023/07/08 00:25:43;;;;;;;6.65;4.60;;;19.20;99.90;;;;;;4723632;30;20265;-86
2023/07/08 00:28:13;;;;;;;5.93;4.55;;;19.20;99.90;;;;;;4729076;30;20304;-84
2023/07/08 00:30:43;;;;;;;6.40;4.43;;;19.20;99.90;;;;;;4720027;30;20241;-84
2023/07/08 00:33:12;;;;;;;5.78;4.95;;;19.20;99.90;;;;;;4731952;30;20231;-85
2023/07/08 00:35:45;;;;;;;6.00;4.53;;;19.50;99.90;;;;;;4729565;30;20311;-85
2023/07/08 00:38:17;;;;;;;9.20;4.90;;;19.20;99.90;;;;;;4730508;30;20588;-86
2023/07/08 00:41:12;;;;;;;7.57;5.40;;;19.80;99.90;;;;;;4733532;30;20217;-85
2023/07/08 00:43:47;;;;;;;8.20;5.00;;;19.40;99.90;;;;;;4725841;30;20248;-86
2023/07/08 00:46:29;;;;;;;7.40;4.85;;;19.00;99.90;;;;;;4726845;30;20220;-85
2023/07/08 00:49:07;;;;;;;8.38;5.03;;;19.30;99.90;;;;;;4723583;30;20274;-83
2023/07/08 00:51:39;;;;;;;5.72;4.80;;;19.00;99.90;;;;;;4725994;30;20205;-84
2023/07/08 00:54:14;;;;;;;5.70;4.43;;;18.80;99.90;;;;;;4743694;30;20229;-85
2023/07/08 00:56:57;;;;;;;7.53;5.38;;;18.80;99.90;;;;;;4730434;30;20302;-83
2023/07/08 00:59:32;;;;;;;8.05;5.13;;;18.80;99.90;;;;;;4731779;30;20252;-83
2023/07/08 01:02:04;;;;;;;8.87;5.60;;;18.70;99.90;;;;;;4726037;30;20217;-86
2023/07/08 01:04:37;;;;;;;7.63;4.63;;;18.70;99.90;;;;;;4730380;30;20268;-83
2023/07/08 01:07:07;;;;;;;6.10;4.82;;;18.60;99.90;;;;;;4722708;30;20577;-85
2023/07/08 01:09:42;;;;;;;6.32;5.10;;;18.70;99.90;;;;;;4726028;30;20630;-84
2023/07/08 01:12:14;;;;;;;8.40;5.53;;;18.60;99.90;;;;;;4730660;30;20335;-85
2023/07/08 01:14:43;;;;;;;6.43;4.93;;;18.60;99.90;;;;;;4730624;30;20682;-85
2023/07/08 01:17:13;;;;;;;8.43;5.27;;;18.50;99.90;;;;;;4726999;30;20220;-85
2023/07/08 01:19:42;;;;;;;6.53;5.53;;;18.50;99.90;;;;;;4729326;30;20233;-84
2023/07/08 01:22:10;;;;;;;7.20;5.50;;;18.40;99.90;;;;;;4724865;30;20270;-83
2023/07/08 01:24:42;;;;;;;8.43;5.80;;;18.40;99.90;;;;;;4730306;30;20232;-85
2023/07/08 01:27:12;;;;;;;8.13;5.90;;;18.40;99.90;;;;;;4728294;30;20279;-86
2023/07/08 01:29:39;;;;;;;7.57;5.40;;;18.30;99.90;;;;;;4741917;30;20385;-86
2023/07/08 01:32:13;;;;;;;8.77;6.60;;;18.30;99.90;;;;;;4738155;30;20225;-85
2023/07/08 01:34:41;;;;;;;7.80;5.70;;;18.20;99.90;;;;;;4727550;30;20304;-84
2023/07/08 01:37:12;;;;;;;8.17;6.10;;;18.50;99.90;;;;;;4726935;30;20249;-84
2023/07/08 01:39:39;;;;;;;6.05;5.32;;;17.70;99.90;;;;;;4728991;30;20244;-84
2023/07/08 01:42:10;;;;;;;13.53;5.93;;;18.00;99.90;;;;;;4736802;30;20220;-86
2023/07/08 01:44:39;;;;;;;8.43;5.73;;;18.80;99.90;;;;;;4730104;30;20224;-85
2023/07/08 01:47:24;;;;;;;12.47;6.37;;;17.90;99.90;;;;;;4734982;30;20216;-85
2023/07/08 01:49:52;;;;;;;7.93;5.53;;;18.00;99.90;;;;;;4737698;30;20213;-87
2023/07/08 01:52:26;;;;;;;7.77;5.40;;;17.90;99.90;;;;;;4725708;30;20215;-84
2023/07/08 01:54:55;;;;;;;9.60;5.37;;;18.20;99.90;;;;;;4728181;30;20239;-87
2023/07/08 01:57:22;;;;;;;7.73;5.53;;;17.90;99.90;;;;;;4730280;30;20217;-85
2023/07/08 01:59:50;;;;;;;7.63;5.60;;;18.00;99.90;;;;;;4730465;30;20239;-84
2023/07/08 02:02:17;;;;;;;10.90;6.40;;;18.20;99.90;;;;;;4731092;30;20208;-85
2023/07/08 02:04:44;;;;;;;7.33;5.23;;;18.00;99.90;;;;;;4730275;30;20256;-85
2023/07/08 02:07:11;;;;;;;9.90;5.50;;;17.80;99.90;;;;;;4730955;30;20220;-84
2023/07/08 02:09:38;;;;;;;8.80;5.73;;;18.30;99.90;;;;;;4735329;30;20229;-84
2023/07/08 02:12:08;;;;;;;9.00;6.13;;;17.50;99.90;;;;;;4732334;30;20303;-87
2023/07/08 02:14:35;;;;;;;9.10;6.20;;;17.60;99.90;;;;;;4730368;30;20236;-86
2023/07/08 02:17:05;;;;;;;10.07;7.10;;;17.60;99.90;;;;;;4726894;30;20216;-85
2023/07/08 02:19:32;;;;;;;8.43;6.03;;;17.60;99.90;;;;;;4734056;30;20728;-85
2023/07/08 02:22:06;;;;;;;7.00;5.77;;;17.80;99.90;;;;;;4731229;30;20217;-84
2023/07/08 02:24:36;;;;;;;9.07;6.27;;;17.40;99.90;;;;;;4730746;30;20248;-85
2023/07/08 02:27:04;;;;;;;9.47;6.20;;;17.40;99.90;;;;;;4730586;30;20635;-87
2023/07/08 02:29:32;;;;;;;7.57;5.70;;;17.40;99.90;;;;;;4728739;30;20304;-86
2023/07/08 02:32:01;;;;;;;7.90;6.10;;;17.40;99.90;;;;;;4729216;30;20578;-85
2023/07/08 02:34:28;;;;;;;10.97;6.07;;;17.30;99.90;;;;;;4730730;30;20285;-84
2023/07/08 02:36:58;;;;;;;8.43;6.40;;;17.30;99.90;;;;;;4723588;30;20224;-86
2023/07/08 02:39:26;;;;;;;10.20;7.00;;;17.40;99.90;;;;;;4729021;30;20252;-84
2023/07/08 02:41:53;;;;;;;10.27;6.43;;;17.20;99.90;;;;;;4724457;30;20231;-86
2023/07/08 02:44:20;;;;;;;8.60;6.50;;;17.30;99.90;;;;;;4734323;30;20234;-84
2023/07/08 02:46:48;;;;;;;8.83;6.40;;;17.20;99.90;;;;;;4725558;30;20581;-85
2023/07/08 02:49:17;;;;;;;7.77;6.50;;;17.20;99.90;;;;;;4727345;30;20320;-87
2023/07/08 02:51:44;;;;;;;8.87;6.53;;;17.00;99.90;;;;;;4731613;30;20208;-85
2023/07/08 02:54:14;;;;;;;7.80;6.33;;;17.30;99.90;;;;;;4726816;30;20245;-85
2023/07/08 02:57:00;;;;;;;10.00;6.63;;;17.10;99.90;;;;;;4729976;30;20216;-84
2023/07/08 02:59:34;;;;;;;10.17;7.13;;;17.10;99.90;;;;;;4739802;30;20335;-88
2023/07/08 03:02:01;;;;;;;11.57;7.07;;;17.20;99.90;;;;;;4732270;30;20229;-85
2023/07/08 03:04:32;;;;;;;7.83;6.77;;;17.00;99.90;;;;;;4726536;30;20316;-85
2023/07/08 03:07:24;;;;;;;8.97;6.27;;;17.00;99.90;;;;;;4723320;30;20626;-85
2023/07/08 03:09:51;;;;;;;11.80;7.43;;;16.90;99.90;;;;;;4714983;30;20217;-84
2023/07/08 03:12:28;;;;;;;10.43;7.30;;;16.90;99.90;;;;;;4723499;30;20227;-85
2023/07/08 03:14:56;;;;;;;10.97;6.20;;;16.90;99.90;;;;;;4723169;30;20290;-85
2023/07/08 03:17:26;;;;;;;11.60;6.90;;;16.80;99.90;;;;;;4734047;30;20213;-84
2023/07/08 03:19:53;;;;;;;7.13;6.40;;;16.80;99.90;;;;;;4738659;30;20241;-83
2023/07/08 03:22:21;;;;;;;11.27;7.23;;;16.90;99.90;;;;;;4733154;30;20751;-87
2023/07/08 03:24:48;;;;;;;10.53;7.07;;;16.80;99.90;;;;;;4725769;30;20245;-85
2023/07/08 03:27:15;;;;;;;10.53;7.07;;;16.80;99.90;;;;;;4735091;30;20212;-84
2023/07/08 03:29:44;;;;;;;8.67;6.73;;;16.40;99.90;;;;;;4739928;30;20228;-84
2023/07/08 03:32:12;;;;;;;10.27;6.70;;;16.70;99.90;;;;;;4734471;30;20232;-85
2023/07/08 03:34:41;;;;;;;8.90;7.10;;;16.70;99.90;;;;;;4745448;30;20298;-84
2023/07/08 03:37:10;;;;;;;11.23;7.83;;;16.70;99.90;;;;;;4742460;30;20285;-85
2023/07/08 03:39:41;;;;;;;9.17;7.10;;;16.80;99.90;;;;;;4740568;30;20687;-85
2023/07/08 03:42:10;;;;;;;9.40;6.97;;;16.70;99.90;;;;;;4730966;30;20219;-84
2023/07/08 03:44:42;;;;;;;8.97;6.47;;;16.90;99.90;;;;;;4721935;30;20223;-84
2023/07/08 03:47:09;;;;;;;10.33;7.50;;;16.70;99.90;;;;;;4732847;30;20275;-85
2023/07/08 03:49:40;;;;;;;10.17;6.93;;;16.50;99.90;;;;;;4732166;30;20232;-85
2023/07/08 03:52:16;;;;;;;9.63;7.20;;;16.70;99.90;;;;;;4740445;30;20235;-85
2023/07/08 03:54:49;;;;;;;9.33;7.07;;;16.70;99.90;;;;;;4738909;30;20296;-85
2023/07/08 03:57:16;;;;;;;10.30;7.20;;;16.70;99.90;;;;;;4730598;30;20221;-85
2023/07/08 03:59:45;;;;;;;9.10;7.30;;;16.70;99.90;;;;;;4726965;30;20233;-85
2023/07/08 04:02:16;;;;;;;10.47;7.30;;;16.70;99.90;;;;;;4726589;30;20223;-87
2023/07/08 04:04:46;;;;;;;10.33;6.90;;;16.70;99.90;;;;;;4726925;30;20247;-88
2023/07/08 04:07:21;;;;;;;9.80;6.50;;;16.80;99.90;;;;;;4733386;30;20298;-85
2023/07/08 04:09:50;;;;;;;9.03;6.67;;;16.80;99.90;;;;;;4735982;30;20699;-85
2023/07/08 04:12:18;;;;;;;12.40;7.33;;;16.80;99.90;;;;;;4729741;30;20300;-84
2023/07/08 04:14:45;;;;;;;10.50;7.63;;;16.80;99.90;;;;;;4735199;30;20298;-85
2023/07/08 04:17:16;;;;;;;10.83;7.17;;;16.80;99.90;;;;;;4728525;30;20271;-86
2023/07/08 04:19:43;;;;;;;10.03;7.33;;;16.80;99.90;;;;;;4728839;30;20577;-85
2023/07/08 04:22:13;;;;;;;10.80;7.83;;;16.90;99.90;;;;;;4734678;30;20220;-85
2023/07/08 04:24:44;;;;;;;10.17;7.83;;;16.90;99.90;;;;;;4728450;30;20255;-86
2023/07/08 04:27:16;;;;;;;10.87;8.27;;;16.90;99.90;;;;;;4744504;30;20216;-85
2023/07/08 04:29:45;;;;;;;10.13;7.13;;;16.90;99.90;;;;;;4725604;30;20236;-84
2023/07/08 04:32:15;;;;;;;9.13;7.00;;;17.00;99.90;;;;;;4743382;30;20215;-87
2023/07/08 04:34:44;;;;;;;9.03;7.57;;;17.00;99.90;;;;;;4736581;30;20219;-84
2023/07/08 04:37:15;;;;;;;9.67;7.23;;;17.10;99.90;;;;;;4729938;30;20319;-85
2023/07/08 04:39:42;;;;;;;7.93;6.77;;;17.10;99.90;;;;;;4745546;30;20670;-85
2023/07/08 04:42:09;;;;;;;8.60;6.83;;;17.10;99.90;;;;;;4736826;30;20262;-83
2023/07/08 04:44:36;;;;;;;8.93;6.73;;;17.10;99.90;;;;;;4727110;30;20219;-84
2023/07/08 04:47:03;;;;;;;9.87;7.27;;;17.10;99.90;;;;;;4737378;30;20274;-83
2023/07/08 04:49:33;;;;;;;11.07;7.23;;;17.30;99.90;;;;;;4730006;30;20300;-84
2023/07/08 04:52:01;;;;;;;10.27;7.70;;;17.30;99.90;;;;;;4729753;30;20594;-86
2023/07/08 04:54:29;;;;;;;8.87;7.03;;;17.30;99.90;;;;;;4726209;30;20302;-84
2023/07/08 04:56:56;;;;;;;10.57;7.17;;;17.30;99.90;;;;;;4733901;30;20315;-84
2023/07/08 04:59:25;;;;;;;9.93;6.60;;;17.50;99.90;;;;;;4724881;30;20252;-85
2023/07/08 05:01:53;;;;;;;11.43;7.13;;;17.50;99.90;;;;;;4725595;30;20309;-85
2023/07/08 05:04:22;;;;;;;9.83;7.27;;;17.50;99.90;;;;;;4725480;30;20275;-83
2023/07/08 05:06:49;;;;;;;10.70;7.43;;;17.60;99.90;;;;;;4727596;30;20652;-84
2023/07/08 05:09:17;;;;;;;10.10;8.03;;;17.60;99.90;;;;;;4724732;30;20574;-85
2023/07/08 05:11:45;;;;;;;11.70;7.77;;;17.70;99.90;;;;;;4723791;30;20564;-84
2023/07/08 05:14:13;;;;;;;9.80;7.20;;;17.80;99.90;;;;;;4741015;30;20238;-84
2023/07/08 05:16:40;;;;;;;10.03;6.50;;;17.90;99.90;;;;;;4729881;30;20223;-83
2023/07/08 05:19:08;;;;;;;9.67;7.10;;;18.10;99.90;;;;;;4724366;30;20225;-82
2023/07/08 05:21:35;;;;;;;9.00;7.22;;;18.00;99.90;;;;;;4728675;30;20249;-84
2023/07/08 05:24:04;;;;;;;9.85;6.63;;;18.10;99.90;;;;;;4730220;30;20755;-85
2023/07/08 05:26:31;;;;;;;9.95;6.57;;;18.10;99.90;;;;;;4728522;30;20593;-87
2023/07/08 05:28:58;;;;;;;13.25;7.10;;;18.70;99.90;;;;;;4728629;30;20284;-84
2023/07/08 05:31:25;;;;;;;8.88;6.90;;;18.30;99.90;;;;;;4727012;30;20248;-86
2023/07/08 05:34:11;;;;;;;7.70;6.25;;;18.60;99.90;;;;;;4729822;30;20213;-85
2023/07/08 05:36:38;;;;;;;7.05;5.63;;;19.20;99.90;;;;;;4735362;30;20627;-86
2023/07/08 05:39:05;;;;;;;7.38;5.70;;;20.20;99.90;;;;;;4733998;30;20668;-86
2023/07/08 05:41:32;;;;;;;8.98;6.18;;;21.20;99.90;;;;;;4729261;30;20695;-85
2023/07/08 05:44:00;;;;;;;7.00;5.50;;;;;;;;;;4726583;30;20221;-84
2023/07/08 05:46:27;;;;;;;7.43;5.80;;;23.00;99.90;;;;;;4726449;30;20229;-84
2023/07/08 05:48:54;;;;;;;9.15;5.75;;;23.90;99.90;;;;;;4729198;30;20220;-92
2023/07/08 05:51:21;;;;;;;6.47;5.72;;;24.70;99.90;;;;;;4723378;30;20227;-85
2023/07/08 05:53:48;;;;;;;7.13;5.78;;;;;;;;;;4725821;30;20341;-83
2023/07/08 05:56:16;;;;;;;9.38;5.93;;;25.80;99.90;;;;;;4729290;30;20219;-83
2023/07/08 05:58:43;;;;;;;7.00;5.00;;;26.30;99.90;;;;;;4740864;30;20316;-84
2023/07/08 06:01:10;;;;;;;7.53;5.28;;;26.90;99.90;;;;;;4733449;30;20236;-84
2023/07/08 06:03:37;;;;;;;7.40;5.80;;;27.40;99.90;;;;;;4725507;30;20540;-84
2023/07/08 06:06:06;;;;;;;7.32;5.13;;;28.10;99.90;;;;;;4745395;30;20299;-85
2023/07/08 06:08:34;;;;;;;6.95;5.00;;;28.40;99.90;;;;;;4747226;30;20235;-85
2023/07/08 06:11:01;;;;;;;7.47;4.50;;;28.90;99.90;;;;;;4737161;30;20219;-86
2023/07/08 06:13:29;;;;;;;6.65;4.93;;;29.40;99.90;;;;;;4745330;30;20227;-85
2023/07/08 06:15:56;;;;;;;5.32;4.50;;;29.80;99.90;;;;;;4728940;30;20319;-84
2023/07/08 06:18:23;;;;;;;6.97;4.97;;;30.10;99.90;;;;;;4730398;30;20699;-84
2023/07/08 06:20:56;;;;;;;5.90;4.60;;;30.60;99.90;;;;;;4729222;30;20264;-84
2023/07/08 06:23:24;;;;;;;5.32;4.30;;;31.00;99.90;;;;;;4732588;30;20235;-86
2023/07/08 06:25:51;;;;;;;5.97;4.50;;;31.10;99.90;;;;;;4730948;30;20632;-83
2023/07/08 06:28:18;;;;;;;6.03;4.53;;;31.20;99.90;;;;;;4745031;30;20326;-85
2023/07/08 06:30:45;;;;;;;4.65;4.10;;;31.40;99.90;;;;;;4725265;30;20286;-84
2023/07/08 06:33:12;;;;;;;7.07;4.40;;;31.60;99.90;;;;;;4743456;30;20208;-84
2023/07/08 06:35:41;;;;;;;5.35;4.28;;;31.80;99.80;;;;;;4739133;30;20244;-84
2023/07/08 06:38:09;;;;;;;5.10;4.38;;;31.80;99.50;;;;;;4748837;30;20224;-84
2023/07/08 06:40:36;;;;;;;4.20;3.80;;;31.90;99.60;;;;;;4745735;30;20235;-83
2023/07/08 06:43:03;;;;;;;5.22;4.00;;;32.30;99.20;;;;;;4731667;30;20216;-83
2023/07/08 06:45:30;;;;;;;3.90;3.40;;;32.70;97.70;;;;;;4742890;30;20232;-84
2023/07/08 06:47:58;;;;;;;4.00;3.35;;;32.70;96.40;;;;;;4733768;30;20654;-81
2023/07/08 06:50:25;;;;;;;3.65;2.90;;;32.70;94.80;;;;;;4741316;30;20277;-84
2023/07/08 06:52:52;;;;;;;4.78;2.83;;;32.70;93.60;;;;;;4747638;30;20220;-84
2023/07/08 06:55:19;;;;;;;4.28;3.00;;;32.50;93.00;;;;;;4746384;30;20768;-82
2023/07/08 06:57:49;;;;;;;3.50;2.88;;;32.50;92.50;;;;;;4730100;30;20248;-84
2023/07/08 07:00:16;;;;;;;4.65;3.28;;;32.50;91.70;;;;;;4725315;30;20251;-85
2023/07/08 07:02:43;;;;;;;4.60;3.10;;;32.50;91.50;;;;;;4724287;30;20224;-85
2023/07/08 07:05:10;;;;;;;3.58;2.90;;;32.50;91.50;;;;;;4729894;30;20687;-86
2023/07/08 07:07:37;;;;;;;3.65;2.85;;;32.70;91.20;;;;;;4724210;30;20268;-83
2023/07/08 07:10:05;;;;;;;5.95;3.20;;;32.70;90.80;;;;;;4721882;30;20560;-84
2023/07/08 07:12:32;;;;;;;3.88;2.90;;;32.70;90.90;;;;;;4725821;30;20702;-85
2023/07/08 07:14:59;;;;;;;3.80;2.83;;;32.70;90.40;;;;;;4722436;30;20221;-85
2023/07/08 07:17:26;;;;;;;4.05;3.38;;;32.70;90.30;;;;;;4727877;30;20220;-85
2023/07/08 07:19:54;;;;;;;4.20;3.13;;;32.80;90.10;;;;;;4722197;30;20236;-86
2023/07/08 07:22:24;;;;;;;6.05;3.70;;;33.00;90.20;;;;;;4728469;30;20220;-86
2023/07/08 07:24:51;;;;;;;4.57;3.38;;;32.70;90.00;;;;;;4719253;30;20280;-83
2023/07/08 07:27:18;;;;;;;3.95;3.35;;;32.50;89.90;;;;;;4729751;30;20224;-83
2023/07/08 07:29:49;;;;;;;5.47;3.40;;;32.50;90.00;;;;;;4723474;30;20259;-84
2023/07/08 07:32:18;;;;;;;4.57;3.13;;;32.70;90.10;;;;;;4717009;30;20229;-82
2023/07/08 07:34:49;;;;;;;4.78;3.33;;;32.60;89.80;;;;;;4725962;30;20220;-83
2023/07/08 07:37:17;;;;;;;6.00;3.42;;;32.30;89.50;;;;;;4731865;30;20258;-82
2023/07/08 07:39:45;;;;;;;5.20;2.90;;;32.40;90.00;;;;;;4724715;30;20699;-82
2023/07/08 07:42:14;;;;;;;4.45;3.05;;;32.30;89.80;;;;;;4727919;30;20679;-82
2023/07/08 07:44:43;;;;;;;4.60;3.55;;;32.30;89.40;;;;;;4726761;30;20228;-86
2023/07/08 07:47:12;;;;;;;6.45;3.22;;;32.20;89.20;;;;;;4731532;30;20541;-83
2023/07/08 07:49:42;;;;;;;3.45;3.03;;;32.30;89.30;;;;;;4720439;30;20263;-84
2023/07/08 07:52:10;;;;;;;4.28;3.05;;;32.30;88.80;;;;;;4721869;30;20213;-81
2023/07/08 07:54:39;;;;;;;5.30;3.50;;;32.40;88.50;;;;;;4724793;30;20292;-81
2023/07/08 07:57:06;;;;;;;4.03;3.20;;;32.10;88.50;;;;;;4728419;30;20676;-84
2023/07/08 07:59:33;;;;;;;5.22;3.70;;;31.70;88.70;;;;;;4722688;30;20623;-83
2023/07/08 08:02:00;;;;;;;4.28;3.20;;;31.20;89.00;;;;;;4728191;30;20685;-82
2023/07/08 08:04:27;;;;;;;5.70;3.42;;;31.20;90.20;;;;;;4723510;30;20726;-82
2023/07/08 08:06:54;;;;;;;5.53;3.60;;;31.00;89.90;;;;;;4731922;30;20217;-84
2023/07/08 08:09:21;;;;;;;5.65;3.60;;;30.90;90.30;;;;;;4727633;30;20212;-83
2023/07/08 08:11:51;;;;;;;4.75;3.25;;;30.70;91.40;;;;;;4730671;30;20213;-83
2023/07/08 08:14:20;;;;;;;7.15;3.30;;;30.80;91.50;;;;;;4731120;30;20567;-84
2023/07/08 08:16:47;;;;;;;4.75;2.90;;;31.20;91.10;;;;;;4725391;30;20619;-82
2023/07/08 08:19:14;;;;;;;4.93;2.97;;;31.60;91.10;;;;;;4728174;30;20288;-82
2023/07/08 08:21:41;;;;;;;4.55;3.13;;;31.70;91.60;;;;;;4724891;30;20248;-82
2023/07/08 08:24:08;;;;;;;3.80;3.20;;;31.80;91.40;;;;;;4724166;30;20310;-82
2023/07/08 08:26:35;;;;;;;3.70;3.30;;;32.10;90.80;;;;;;4727249;30;20215;-82
2023/07/08 08:29:02;;;;;;;4.95;3.20;;;32.40;90.60;;;;;;4730214;30;20312;-84
2023/07/08 08:31:31;;;;;;;5.25;3.33;;;32.60;90.20;;;;;;4721160;30;20291;-82
2023/07/08 08:33:58;;;;;;;5.15;3.58;;;32.90;89.90;;;;;;4729924;30;20233;-82
2023/07/08 08:36:25;;;;;;;5.13;3.10;;;33.00;90.20;;;;;;4727647;30;20591;-84
2023/07/08 08:38:52;;;;;;;5.45;3.17;;;33.40;90.00;;;;;;4733848;30;20216;-82
2023/07/08 08:41:30;;;;;;;4.95;3.63;;;33.60;89.10;;;;;;4722624;30;20306;-82
2023/07/08 08:44:00;;;;;;;4.15;3.13;;;33.60;88.70;;;;;;4731542;30;20220;-81
2023/07/08 08:46:51;;;;;;;3.83;3.08;;;33.80;88.70;;;;;;4727661;30;20268;-83
2023/07/08 08:49:24;;;;;;;3.03;2.60;;;33.90;87.40;;;;;;4730586;30;20219;-83
2023/07/08 08:51:51;;;;;;;5.07;3.30;;;34.00;89.40;;;;;;4723598;30;20213;-81
2023/07/08 08:54:19;;;;;;;4.75;3.33;;;33.70;89.60;;;;;;4726908;30;20233;-83
2023/07/08 08:57:01;;;;;;;7.28;3.58;;;33.90;90.40;;;;;;4726729;30;20576;-81
2023/07/08 08:59:43;;;;;;;6.10;3.55;;;34.00;89.90;;;;;;4743873;30;20247;-82
2023/07/08 09:02:47;;;;;;;5.30;3.47;;;34.10;90.00;;;;;;4740154;30;20231;-81
2023/07/08 09:05:15;;;;;;;3.30;2.80;;;34.10;89.50;;;;;;4742726;30;20226;-82
2023/07/08 09:07:57;;;;;;;6.65;3.10;;;33.90;89.70;;;;;;4745874;30;20696;-81
2023/07/08 09:11:03;;;;;;;4.82;3.35;;;34.00;89.50;;;;;;4724575;30;20678;-83
2023/07/08 09:13:35;;;;;;;4.13;3.38;;;34.10;88.80;;;;;;4741797;30;20222;-83
2023/07/08 09:16:37;;;;;;;4.78;3.40;;;34.10;88.30;;;;;;4735938;30;20573;-86
2023/07/08 09:19:32;;;;;;;4.45;3.67;;;34.30;88.30;;;;;;4740619;30;20265;-85
2023/07/08 09:22:21;;;;;;;5.82;3.35;;;34.30;88.70;;;;;;4747735;30;20247;-83
2023/07/08 09:25:01;;;;;;;4.35;3.20;;;34.30;87.30;;;;;;4753468;30;20228;-84
2023/07/08 09:27:28;;;;;;;5.38;3.40;;;34.30;86.80;;;;;;4762284;30;20226;-84
2023/07/08 09:29:56;;;;;;;4.18;3.40;;;34.40;85.10;;;;;;4754332;30;20251;-83
2023/07/08 09:32:26;;;;;;;4.03;3.10;;;34.40;84.60;;;;;;4736277;30;20220;-83
2023/07/08 09:35:06;;;;;;;5.35;3.55;;;34.50;84.60;;;;;;4750750;30;20266;-83
2023/07/08 09:37:38;;;;;;;5.38;3.70;;;34.60;84.10;;;;;;4756619;30;20214;-83
2023/07/08 09:40:29;;;;;;;5.13;3.70;;;34.60;82.90;;;;;;4741710;30;20203;-85
2023/07/08 09:43:12;;;;;;;4.78;3.40;;;34.40;81.80;;;;;;4739899;30;20261;-83
2023/07/08 09:45:42;;;;;;;4.70;3.30;;;34.20;82.30;;;;;;4730568;30;20286;-84
2023/07/08 09:48:26;;;;;;;9.55;4.30;;;34.00;82.40;;;;;;4730616;30;20255;-83
2023/07/08 09:50:57;;;;;;;5.47;3.70;;;34.00;82.80;;;;;;4743137;30;20545;-83
2023/07/08 09:53:26;;;;;;;5.40;3.67;;;33.90;83.50;;;;;;4736802;30;20213;-83
2023/07/08 09:55:58;;;;;;;6.75;3.70;;;33.90;84.10;;;;;;4740851;30;20697;-82
2023/07/08 09:58:37;;;;;;;6.53;3.88;;;33.80;84.00;;;;;;4720779;30;20271;-84
2023/07/08 10:01:15;;;;;;;6.05;4.22;;;33.80;84.20;;;;;;4712773;30;20271;-83
2023/07/08 10:03:42;;;;;;;6.38;4.35;;;33.80;84.10;;;;;;4711519;30;20303;-84
2023/07/08 10:06:30;;;;;;;5.32;4.05;;;33.80;84.20;;;;;;4714744;30;20293;-82
2023/07/08 10:09:09;;;;;;;6.45;4.18;;;33.80;87.50;;;;;;4718534;30;20217;-84
2023/07/08 10:11:42;;;;;;;5.97;4.20;;;33.70;86.50;;;;;;4719115;30;20221;-84
2023/07/08 10:14:34;;;;;;;4.15;3.67;;;33.70;85.50;;;;;;4721278;30;20725;-85
2023/07/08 10:17:03;;;;;;;5.03;4.10;;;33.80;84.80;;;;;;4722493;30;20213;-85
2023/07/08 10:19:32;;;;;;;8.75;4.13;;;33.90;84.40;;;;;;4719523;30;20230;-83
2023/07/08 10:22:18;;;;;;;6.80;3.88;;;33.90;84.50;;;;;;4726634;30;20229;-83
2023/07/08 10:24:48;;;;;;;6.18;3.45;;;34.10;83.90;;;;;;4733651;30;20197;-83
2023/07/08 10:27:45;;;;;;;5.32;4.10;;;34.10;83.90;;;;;;4729665;30;20206;-83
2023/07/08 10:30:25;;;;;;;7.15;3.63;;;34.20;84.00;;;;;;4735438;30;20301;-82
2023/07/08 10:33:08;;;;;;;6.88;4.50;;;34.20;85.50;;;;;;4714730;30;20313;-83
2023/07/08 10:35:40;;;;;;;6.45;4.22;;;34.10;85.40;;;;;;4711763;30;20267;-86
2023/07/08 10:38:37;;;;;;;5.50;4.20;;;34.10;84.90;;;;;;4712530;30;20218;-83
2023/07/08 10:41:22;;;;;;;5.72;4.15;;;34.10;84.10;;;;;;4719131;30;20699;-84
2023/07/08 10:44:07;;;;;;;8.60;4.50;;;34.10;84.10;;;;;;4714319;30;20300;-85
2023/07/08 10:46:50;;;;;;;5.53;4.20;;;34.20;83.50;;;;;;4713249;30;20354;-83
2023/07/08 10:49:42;;;;;;;6.45;4.10;;;34.20;83.90;;;;;;4728577;30;20692;-83
2023/07/08 10:52:37;;;;;;;5.70;4.43;;;34.30;84.00;;;;;;4715901;30;20673;-84
2023/07/08 10:55:29;;;;;;;5.00;4.15;;;34.30;83.60;;;;;;4710088;30;20226;-84
2023/07/08 10:58:31;;;;;;;5.53;4.30;;;34.20;83.80;;;;;;4721168;30;20245;-84
2023/07/08 11:01:21;;;;;;;5.57;3.60;;;34.10;84.10;;;;;;4710233;30;20251;-83
2023/07/08 11:04:26;;;;;;;7.25;4.30;;;34.10;84.30;;;;;;4731532;30;20223;-84
2023/07/08 11:06:56;;;;;;;8.57;3.97;;;34.00;87.60;;;;;;4724899;30;20303;-83
2023/07/08 11:09:48;;;;;;;7.47;3.95;;;33.90;87.80;;;;;;4742026;30;20220;-83
2023/07/08 11:12:43;;;;;;;8.60;4.70;;;34.00;88.50;;;;;;4727068;30;20217;-86
2023/07/08 11:15:22;;;;;;;6.38;4.22;;;34.00;87.20;;;;;;4743433;30;20260;-83
2023/07/08 11:18:01;;;;;;;6.20;4.53;;;34.10;85.70;;;;;;4731970;30;20215;-84
2023/07/08 11:20:45;;;;;;;5.43;4.20;;;34.10;85.50;;;;;;4742011;30;20323;-84
2023/07/08 11:23:42;;;;;;;6.50;4.45;;;34.00;85.20;;;;;;4740002;30;20227;-83
2023/07/08 11:26:15;;;;;;;5.55;4.15;;;34.10;84.90;;;;;;4727066;30;20223;-83
2023/07/08 11:28:43;;;;;;;5.45;4.20;;;34.00;84.90;;;;;;4729161;30;20596;-83
2023/07/08 11:31:11;;;;;;;6.68;4.13;;;34.00;84.80;;;;;;4740617;30;20228;-84
2023/07/08 11:33:39;;;;;;;6.28;4.60;;;34.00;85.20;;;;;;4726884;30;20348;-83
2023/07/08 11:36:07;;;;;;;7.53;4.32;;;34.00;85.00;;;;;;4745349;30;20282;-83
2023/07/08 11:38:35;;;;;;;6.32;4.18;;;34.00;85.50;;;;;;4726711;30;20545;-85
2023/07/08 11:41:13;;;;;;;6.00;4.20;;;34.10;85.40;;;;;;4743768;30;20240;-86
2023/07/08 11:43:49;;;;;;;5.32;3.80;;;34.00;85.60;;;;;;4728554;30;20224;-84
2023/07/08 11:46:25;;;;;;;6.53;4.32;;;34.00;87.20;;;;;;4731736;30;20240;-83
2023/07/08 11:48:57;;;;;;;6.13;4.38;;;34.00;88.00;;;;;;4740404;30;20224;-84
2023/07/08 11:51:33;;;;;;;6.95;4.47;;;33.80;87.70;;;;;;4742529;30;20223;-82
2023/07/08 11:54:19;;;;;;;6.55;4.50;;;33.80;86.80;;;;;;4728232;30;20621;-84
2023/07/08 11:57:04;;;;;;;7.22;4.60;;;33.90;86.00;;;;;;4744193;30;20220;-82
2023/07/08 11:59:40;;;;;;;6.70;4.53;;;34.00;86.00;;;;;;4726448;30;20699;-85
2023/07/08 12:02:18;;;;;;;6.38;4.32;;;34.10;85.40;;;;;;4729389;30;20318;-83
2023/07/08 12:05:01;;;;;;;8.77;4.18;;;34.10;85.40;;;;;;4731060;30;20337;-83
2023/07/08 12:07:46;;;;;;;7.68;4.85;;;34.10;84.20;;;;;;4739347;30;20228;-83
2023/07/08 12:10:35;;;;;;;7.05;4.22;;;34.10;84.50;;;;;;4733369;30;20212;-84
2023/07/08 12:13:03;;;;;;;7.55;4.35;;;34.10;85.00;;;;;;4728784;30;20220;-83
2023/07/08 12:15:32;;;;;;;6.88;4.65;;;34.10;85.00;;;;;;4726818;30;20724;-83
2023/07/08 12:18:06;;;;;;;6.03;4.68;;;34.10;85.60;;;;;;4733589;30;20220;-82
2023/07/08 12:20:39;;;;;;;5.85;4.50;;;34.10;85.80;;;;;;4728942;30;20275;-83
2023/07/08 12:23:12;;;;;;;6.50;4.63;;;34.20;84.90;;;;;;4742095;30;20690;-83
2023/07/08 12:25:40;;;;;;;7.15;4.40;;;34.20;84.10;;;;;;4729474;30;20226;-85
2023/07/08 12:28:09;;;;;;;6.90;4.40;;;34.30;84.30;;;;;;4743762;30;20304;-84
2023/07/08 12:30:36;;;;;;;6.30;4.72;;;34.40;84.20;;;;;;4740882;30;20240;-83
2023/07/08 12:33:13;;;;;;;8.20;5.28;;;34.50;83.60;;;;;;4737227;30;20230;-82
2023/07/08 12:35:42;;;;;;;7.93;4.30;;;34.60;82.80;;;;;;4749615;30;20540;-84
2023/07/08 12:38:22;;;;;;;7.60;4.20;;;34.70;82.90;;;;;;4739414;30;20216;-83
2023/07/08 12:40:50;;;;;;;7.68;4.57;;;34.70;82.40;;;;;;4736433;30;20220;-82
2023/07/08 12:43:18;;;;;;;7.28;4.68;;;34.80;83.00;;;;;;4734656;30;20294;-85
2023/07/08 12:45:47;;;;;;;6.75;4.20;;;34.80;82.70;;;;;;4742328;30;20291;-83
2023/07/08 12:48:15;;;;;;;9.50;4.85;;;34.80;82.90;;;;;;4744861;30;20220;-84
2023/07/08 12:51:12;;;;;;;5.68;4.05;;;34.90;82.30;;;;;;4740516;30;20654;-86
2023/07/08 12:53:54;;;;;;;6.82;4.75;;;34.90;83.10;;;;;;4730584;30;20213;-84
2023/07/08 12:56:28;;;;;;;8.43;4.72;;;35.00;82.00;;;;;;4745414;30;20227;-83
2023/07/08 12:59:16;;;;;;;7.57;4.60;;;35.00;81.90;;;;;;4732767;30;20260;-85
2023/07/08 13:01:58;;;;;;;8.00;4.97;;;35.10;81.90;;;;;;4737094;30;20240;-84
2023/07/08 13:04:41;;;;;;;7.43;5.03;;;35.10;82.20;;;;;;4735145;30;20579;-82
2023/07/08 13:07:40;;;;;;;7.53;4.93;;;35.10;82.10;;;;;;4736548;30;20208;-80
2023/07/08 13:10:17;;;;;;;6.88;4.60;;;35.10;80.70;;;;;;4734095;30;20279;-80
2023/07/08 13:12:46;;;;;;;8.25;5.18;;;35.10;80.90;;;;;;4725686;30;20212;-79